sensor_id;sensor_type;location;lat;lon;timestamp;temperature;humidity
34201;DHT22;20469;55.638;37.670;2023-05-25T00:00:11;15.80;99.90
34201;DHT22;20469;55.638;37.670;2023-05-25T00:02:39;15.80;99.90
34201;DHT22;20469;55.638;37.670;2023-05-25T00:05:07;15.70;99.90
34201;DHT22;20469;55.638;37.670;2023-05-25T00:07:35;15.50;99.90
34201;DHT22;20469;55.638;37.670;2023-05-25T00:10:03;15.50;99.90
34201;DHT22;20469;55.638;37.670;2023-05-25T00:12:32;15.60;99.90
34201;DHT22;20469;55.638;37.670;2023-05-25T00:15:00;15.50;99.90
34201;DHT22;20469;55.638;37.670;2023-05-25T00:17:30;15.60;99.90
34201;DHT22;20469;55.638;37.670;2023-05-25T00:19:58;15.60;99.90
34201;DHT22;20469;55.638;37.670;2023-05-25T00:22:37;15.60;99.90
34201;DHT22;20469;55.638;37.670;2023-05-25T00:25:05;15.60;99.90
34201;DHT22;20469;55.638;37.670;2023-05-25T00:27:32;15.60;99.90
34201;DHT22;20469;55.638;37.670;2023-05-25T00:29:59;15.70;99.90
34201;DHT22;20469;55.638;37.670;2023-05-25T00:32:33;15.60;99.90
34201;DHT22;20469;55.638;37.670;2023-05-25T00:35:01;15.60;99.90
34201;DHT22;20469;55.638;37.670;2023-05-25T00:37:30;15.50;99.90
34201;DHT22;20469;55.638;37.670;2023-05-25T00:39:57;15.50;99.90
34201;DHT22;20469;55.638;37.670;2023-05-25T00:42:24;15.50;99.90
34201;DHT22;20469;55.638;37.670;2023-05-25T00:44:54;15.50;99.90
34201;DHT22;20469;55.638;37.670;2023-05-25T00:47:21;15.60;99.90
34201;DHT22;20469;55.638;37.670;2023-05-25T00:49:49;15.60;99.90
34201;DHT22;20469;55.638;37.670;2023-05-25T00:52:17;15.60;99.90
34201;DHT22;20469;55.638;37.670;2023-05-25T00:54:47;15.70;99.90
34201;DHT22;20469;55.638;37.670;2023-05-25T00:57:19;15.70;99.90
34201;DHT22;20469;55.638;37.670;2023-05-25T00:59:50;15.50;99.90
34201;DHT22;20469;55.638;37.670;2023-05-25T01:02:21;15.40;99.90
34201;DHT22;20469;55.638;37.670;2023-05-25T01:04:52;15.40;99.90
34201;DHT22;20469;55.638;37.670;2023-05-25T01:07:21;15.50;99.90
34201;DHT22;20469;55.638;37.670;2023-05-25T01:09:56;15.50;99.90
34201;DHT22;20469;55.638;37.670;2023-05-25T01:12:27;15.50;99.90
34201;DHT22;20469;55.638;37.670;2023-05-25T01:14:56;15.50;99.90
34201;DHT22;20469;55.638;37.670;2023-05-25T01:17:25;15.50;99.90
34201;DHT22;20469;55.638;37.670;2023-05-25T01:19:52;15.40;99.90
34201;DHT22;20469;55.638;37.670;2023-05-25T01:22:47;15.40;99.90
34201;DHT22;20469;55.638;37.670;2023-05-25T01:25:21;15.60;99.90
34201;DHT22;20469;55.638;37.670;2023-05-25T01:27:53;15.60;99.90
34201;DHT22;20469;55.638;37.670;2023-05-25T01:30:24;15.50;99.90
34201;DHT22;20469;55.638;37.670;2023-05-25T01:32:53;15.50;99.90
34201;DHT22;20469;55.638;37.670;2023-05-25T01:35:22;15.50;99.90
34201;DHT22;20469;55.638;37.670;2023-05-25T01:37:51;15.50;99.90
34201;DHT22;20469;55.638;37.670;2023-05-25T01:40:18;15.60;99.90
34201;DHT22;20469;55.638;37.670;2023-05-25T01:42:47;15.60;99.90
34201;DHT22;20469;55.638;37.670;2023-05-25T01:45:14;15.60;99.90
34201;DHT22;20469;55.638;37.670;2023-05-25T01:53:44;15.40;99.90
34201;DHT22;20469;55.638;37.670;2023-05-25T01:56:12;15.50;99.90
34201;DHT22;20469;55.638;37.670;2023-05-25T01:58:44;15.50;99.90
34201;DHT22;20469;55.638;37.670;2023-05-25T02:01:13;15.50;99.90
34201;DHT22;20469;55.638;37.670;2023-05-25T02:03:41;15.60;99.90
34201;DHT22;20469;55.638;37.670;2023-05-25T02:06:08;15.60;99.90
34201;DHT22;20469;55.638;37.670;2023-05-25T02:08:36;15.50;99.90
34201;DHT22;20469;55.638;37.670;2023-05-25T02:11:03;15.60;99.90
34201;DHT22;20469;55.638;37.670;2023-05-25T02:13:30;15.60;99.90
34201;DHT22;20469;55.638;37.670;2023-05-25T02:15:57;15.60;99.90
34201;DHT22;20469;55.638;37.670;2023-05-25T02:18:25;15.70;99.90
34201;DHT22;20469;55.638;37.670;2023-05-25T02:20:52;15.70;99.90
34201;DHT22;20469;55.638;37.670;2023-05-25T02:23:19;15.80;99.90
34201;DHT22;20469;55.638;37.670;2023-05-25T02:25:46;15.90;99.90
34201;DHT22;20469;55.638;37.670;2023-05-25T02:28:14;16.00;99.90
34201;DHT22;20469;55.638;37.670;2023-05-25T02:30:41;15.90;99.90
34201;DHT22;20469;55.638;37.670;2023-05-25T02:33:09;16.00;99.90
34201;DHT22;20469;55.638;37.670;2023-05-25T02:35:36;16.00;99.90
34201;DHT22;20469;55.638;37.670;2023-05-25T02:38:04;16.10;99.90
34201;DHT22;20469;55.638;37.670;2023-05-25T02:40:31;16.20;99.90
34201;DHT22;20469;55.638;37.670;2023-05-25T02:42:59;16.20;99.90
34201;DHT22;20469;55.638;37.670;2023-05-25T02:45:26;16.20;99.90
34201;DHT22;20469;55.638;37.670;2023-05-25T02:47:53;16.30;99.90
34201;DHT22;20469;55.638;37.670;2023-05-25T02:50:20;16.30;99.90
34201;DHT22;20469;55.638;37.670;2023-05-25T02:52:48;16.30;99.90
34201;DHT22;20469;55.638;37.670;2023-05-25T02:55:15;16.40;99.90
34201;DHT22;20469;55.638;37.670;2023-05-25T02:57:44;16.50;99.90
34201;DHT22;20469;55.638;37.670;2023-05-25T03:00:13;16.60;99.90
34201;DHT22;20469;55.638;37.670;2023-05-25T03:02:40;16.90;99.90
34201;DHT22;20469;55.638;37.670;2023-05-25T03:05:08;16.80;99.90
34201;DHT22;20469;55.638;37.670;2023-05-25T03:07:35;16.90;99.90
34201;DHT22;20469;55.638;37.670;2023-05-25T03:10:03;16.90;99.90
34201;DHT22;20469;55.638;37.670;2023-05-25T03:12:31;17.10;99.90
34201;DHT22;20469;55.638;37.670;2023-05-25T03:14:58;17.20;99.90
34201;DHT22;20469;55.638;37.670;2023-05-25T03:17:30;17.40;99.90
34201;DHT22;20469;55.638;37.670;2023-05-25T03:19:57;17.50;99.90
34201;DHT22;20469;55.638;37.670;2023-05-25T03:22:25;17.50;99.90
34201;DHT22;20469;55.638;37.670;2023-05-25T03:24:52;17.70;99.90
34201;DHT22;20469;55.638;37.670;2023-05-25T03:27:20;17.90;99.90
34201;DHT22;20469;55.638;37.670;2023-05-25T03:29:48;18.20;99.90
34201;DHT22;20469;55.638;37.670;2023-05-25T03:32:16;18.20;99.90
34201;DHT22;20469;55.638;37.670;2023-05-25T03:34:44;18.30;99.90
34201;DHT22;20469;55.638;37.670;2023-05-25T03:37:11;18.40;99.90
34201;DHT22;20469;55.638;37.670;2023-05-25T03:39:39;18.40;99.90
34201;DHT22;20469;55.638;37.670;2023-05-25T03:42:07;18.70;99.90
34201;DHT22;20469;55.638;37.670;2023-05-25T03:44:34;18.70;99.90
34201;DHT22;20469;55.638;37.670;2023-05-25T03:47:01;18.80;99.90
34201;DHT22;20469;55.638;37.670;2023-05-25T03:49:29;19.00;99.90
34201;DHT22;20469;55.638;37.670;2023-05-25T03:51:58;19.20;99.90
34201;DHT22;20469;55.638;37.670;2023-05-25T03:54:28;19.30;99.90
34201;DHT22;20469;55.638;37.670;2023-05-25T03:56:55;19.20;99.90
34201;DHT22;20469;55.638;37.670;2023-05-25T03:59:25;19.20;99.90
34201;DHT22;20469;55.638;37.670;2023-05-25T04:01:52;19.20;99.90
34201;DHT22;20469;55.638;37.670;2023-05-25T04:04:20;19.30;99.90
34201;DHT22;20469;55.638;37.670;2023-05-25T04:06:48;19.20;99.90
34201;DHT22;20469;55.638;37.670;2023-05-25T04:09:15;19.30;99.90
34201;DHT22;20469;55.638;37.670;2023-05-25T04:11:43;19.10;99.90
34201;DHT22;20469;55.638;37.670;2023-05-25T04:14:11;19.30;99.90
34201;DHT22;20469;55.638;37.670;2023-05-25T04:16:39;19.10;99.90
34201;DHT22;20469;55.638;37.670;2023-05-25T04:19:07;19.10;99.90
34201;DHT22;20469;55.638;37.670;2023-05-25T04:21:34;19.30;99.90
34201;DHT22;20469;55.638;37.670;2023-05-25T04:24:02;19.60;99.90
34201;DHT22;20469;55.638;37.670;2023-05-25T04:26:29;19.70;99.90
34201;DHT22;20469;55.638;37.670;2023-05-25T04:28:57;19.90;99.90
34201;DHT22;20469;55.638;37.670;2023-05-25T04:31:25;19.90;99.90
34201;DHT22;20469;55.638;37.670;2023-05-25T04:33:53;20.00;99.90
34201;DHT22;20469;55.638;37.670;2023-05-25T04:36:22;20.10;99.90
34201;DHT22;20469;55.638;37.670;2023-05-25T04:38:49;20.50;99.90
34201;DHT22;20469;55.638;37.670;2023-05-25T04:41:18;20.50;99.90
34201;DHT22;20469;55.638;37.670;2023-05-25T04:43:45;20.20;99.90
34201;DHT22;20469;55.638;37.670;2023-05-25T04:46:32;20.20;99.90
34201;DHT22;20469;55.638;37.670;2023-05-25T04:49:04;20.30;99.90
34201;DHT22;20469;55.638;37.670;2023-05-25T04:51:39;20.40;99.90
34201;DHT22;20469;55.638;37.670;2023-05-25T04:54:07;20.00;99.90
34201;DHT22;20469;55.638;37.670;2023-05-25T04:56:34;19.90;99.90
34201;DHT22;20469;55.638;37.670;2023-05-25T04:59:01;19.80;99.90
34201;DHT22;20469;55.638;37.670;2023-05-25T05:01:30;19.80;99.90
34201;DHT22;20469;55.638;37.670;2023-05-25T05:04:00;19.80;99.90
34201;DHT22;20469;55.638;37.670;2023-05-25T05:06:27;20.00;99.90
34201;DHT22;20469;55.638;37.670;2023-05-25T05:08:54;20.00;99.90
34201;DHT22;20469;55.638;37.670;2023-05-25T05:11:22;20.10;99.90
34201;DHT22;20469;55.638;37.670;2023-05-25T05:13:49;19.90;99.90
34201;DHT22;20469;55.638;37.670;2023-05-25T05:16:16;19.90;99.90
34201;DHT22;20469;55.638;37.670;2023-05-25T05:18:43;19.70;99.90
34201;DHT22;20469;55.638;37.670;2023-05-25T05:21:11;19.80;99.90
34201;DHT22;20469;55.638;37.670;2023-05-25T05:23:38;19.80;99.90
34201;DHT22;20469;55.638;37.670;2023-05-25T05:26:05;19.70;99.90
34201;DHT22;20469;55.638;37.670;2023-05-25T05:28:37;19.70;99.90
34201;DHT22;20469;55.638;37.670;2023-05-25T05:31:04;19.70;99.90
34201;DHT22;20469;55.638;37.670;2023-05-25T05:33:32;19.80;99.90
34201;DHT22;20469;55.638;37.670;2023-05-25T05:36:00;19.90;99.90
34201;DHT22;20469;55.638;37.670;2023-05-25T05:38:28;20.10;99.90
34201;DHT22;20469;55.638;37.670;2023-05-25T05:40:55;20.20;99.90
34201;DHT22;20469;55.638;37.670;2023-05-25T05:43:22;20.30;99.90
34201;DHT22;20469;55.638;37.670;2023-05-25T05:45:49;20.10;99.90
34201;DHT22;20469;55.638;37.670;2023-05-25T05:48:17;20.00;99.90
34201;DHT22;20469;55.638;37.670;2023-05-25T05:50:44;20.10;99.90
34201;DHT22;20469;55.638;37.670;2023-05-25T05:53:12;20.10;99.90
34201;DHT22;20469;55.638;37.670;2023-05-25T05:55:39;20.00;99.90
34201;DHT22;20469;55.638;37.670;2023-05-25T05:58:06;20.00;99.90
34201;DHT22;20469;55.638;37.670;2023-05-25T06:00:34;20.00;99.90
34201;DHT22;20469;55.638;37.670;2023-05-25T06:03:01;19.90;99.90
34201;DHT22;20469;55.638;37.670;2023-05-25T06:05:29;19.90;99.90
34201;DHT22;20469;55.638;37.670;2023-05-25T06:07:56;19.80;99.90
34201;DHT22;20469;55.638;37.670;2023-05-25T06:10:23;19.70;99.90
34201;DHT22;20469;55.638;37.670;2023-05-25T06:12:51;19.80;99.90
34201;DHT22;20469;55.638;37.670;2023-05-25T06:18:05;19.80;99.90
34201;DHT22;20469;55.638;37.670;2023-05-25T06:20:32;19.70;99.90
34201;DHT22;20469;55.638;37.670;2023-05-25T06:34:12;19.70;99.90
34201;DHT22;20469;55.638;37.670;2023-05-25T06:36:39;19.70;99.90
34201;DHT22;20469;55.638;37.670;2023-05-25T06:39:07;19.60;99.90
34201;DHT22;20469;55.638;37.670;2023-05-25T06:41:37;19.60;99.90
34201;DHT22;20469;55.638;37.670;2023-05-25T06:44:06;19.60;99.90
34201;DHT22;20469;55.638;37.670;2023-05-25T06:46:34;19.60;99.90
34201;DHT22;20469;55.638;37.670;2023-05-25T06:49:02;19.60;99.90
34201;DHT22;20469;55.638;37.670;2023-05-25T06:51:30;19.50;99.90
34201;DHT22;20469;55.638;37.670;2023-05-25T06:53:59;19.60;99.90
34201;DHT22;20469;55.638;37.670;2023-05-25T06:56:26;19.50;99.90
34201;DHT22;20469;55.638;37.670;2023-05-25T06:58:54;19.20;99.90
34201;DHT22;20469;55.638;37.670;2023-05-25T07:01:21;19.20;99.90
34201;DHT22;20469;55.638;37.670;2023-05-25T07:03:48;19.30;99.90
34201;DHT22;20469;55.638;37.670;2023-05-25T07:06:16;19.30;99.90
34201;DHT22;20469;55.638;37.670;2023-05-25T07:08:43;19.40;99.90
34201;DHT22;20469;55.638;37.670;2023-05-25T07:11:10;19.40;99.90
34201;DHT22;20469;55.638;37.670;2023-05-25T07:13:40;19.30;99.90
34201;DHT22;20469;55.638;37.670;2023-05-25T07:16:07;19.20;99.90
34201;DHT22;20469;55.638;37.670;2023-05-25T07:18:38;19.10;99.90
34201;DHT22;20469;55.638;37.670;2023-05-25T07:21:06;19.10;99.90
34201;DHT22;20469;55.638;37.670;2023-05-25T07:23:37;19.10;99.90
34201;DHT22;20469;55.638;37.670;2023-05-25T07:26:07;19.20;99.90
34201;DHT22;20469;55.638;37.670;2023-05-25T07:28:34;19.10;99.90
34201;DHT22;20469;55.638;37.670;2023-05-25T07:31:01;19.10;99.90
34201;DHT22;20469;55.638;37.670;2023-05-25T07:33:29;19.10;99.90
34201;DHT22;20469;55.638;37.670;2023-05-25T07:36:15;19.10;99.90
34201;DHT22;20469;55.638;37.670;2023-05-25T07:38:42;19.20;99.90
34201;DHT22;20469;55.638;37.670;2023-05-25T07:41:09;19.40;99.90
34201;DHT22;20469;55.638;37.670;2023-05-25T07:43:39;19.50;99.90
34201;DHT22;20469;55.638;37.670;2023-05-25T07:46:07;19.60;99.90
34201;DHT22;20469;55.638;37.670;2023-05-25T07:48:34;19.60;99.90
34201;DHT22;20469;55.638;37.670;2023-05-25T07:51:01;19.70;99.90
34201;DHT22;20469;55.638;37.670;2023-05-25T07:53:28;19.80;99.90
34201;DHT22;20469;55.638;37.670;2023-05-25T07:55:56;19.80;99.90
34201;DHT22;20469;55.638;37.670;2023-05-25T07:58:23;19.70;99.90
34201;DHT22;20469;55.638;37.670;2023-05-25T08:00:50;19.70;99.90
34201;DHT22;20469;55.638;37.670;2023-05-25T08:03:18;19.70;99.90
34201;DHT22;20469;55.638;37.670;2023-05-25T08:05:57;19.50;99.90
34201;DHT22;20469;55.638;37.670;2023-05-25T08:08:25;19.30;99.90
34201;DHT22;20469;55.638;37.670;2023-05-25T08:10:52;19.30;99.90
34201;DHT22;20469;55.638;37.670;2023-05-25T08:13:19;19.20;99.90
34201;DHT22;20469;55.638;37.670;2023-05-25T08:15:47;19.30;99.90
34201;DHT22;20469;55.638;37.670;2023-05-25T08:18:15;19.20;99.90
34201;DHT22;20469;55.638;37.670;2023-05-25T08:20:44;19.10;99.90
34201;DHT22;20469;55.638;37.670;2023-05-25T08:23:12;19.20;99.90
34201;DHT22;20469;55.638;37.670;2023-05-25T08:25:40;19.10;99.90
34201;DHT22;20469;55.638;37.670;2023-05-25T08:28:07;19.00;99.90
34201;DHT22;20469;55.638;37.670;2023-05-25T08:30:34;19.10;99.90
34201;DHT22;20469;55.638;37.670;2023-05-25T08:33:01;19.20;99.90
34201;DHT22;20469;55.638;37.670;2023-05-25T08:35:29;19.10;99.90
34201;DHT22;20469;55.638;37.670;2023-05-25T08:37:56;19.10;99.90
34201;DHT22;20469;55.638;37.670;2023-05-25T08:40:25;19.10;99.90
34201;DHT22;20469;55.638;37.670;2023-05-25T08:42:56;19.10;99.90
34201;DHT22;20469;55.638;37.670;2023-05-25T08:45:23;19.00;99.90
34201;DHT22;20469;55.638;37.670;2023-05-25T08:48:03;19.00;99.90
34201;DHT22;20469;55.638;37.670;2023-05-25T08:50:32;19.00;99.90
34201;DHT22;20469;55.638;37.670;2023-05-25T08:53:02;19.00;99.90
34201;DHT22;20469;55.638;37.670;2023-05-25T08:55:32;19.00;99.90
34201;DHT22;20469;55.638;37.670;2023-05-25T08:58:15;19.20;99.90
34201;DHT22;20469;55.638;37.670;2023-05-25T09:00:49;19.30;99.90
34201;DHT22;20469;55.638;37.670;2023-05-25T09:03:18;19.10;99.90
34201;DHT22;20469;55.638;37.670;2023-05-25T09:05:46;19.10;99.90
34201;DHT22;20469;55.638;37.670;2023-05-25T09:08:14;19.00;99.90
34201;DHT22;20469;55.638;37.670;2023-05-25T09:10:42;19.10;99.90
34201;DHT22;20469;55.638;37.670;2023-05-25T09:13:10;19.00;99.90
34201;DHT22;20469;55.638;37.670;2023-05-25T09:15:48;19.10;99.90
34201;DHT22;20469;55.638;37.670;2023-05-25T09:18:15;19.20;99.90
34201;DHT22;20469;55.638;37.670;2023-05-25T09:20:43;19.20;99.90
34201;DHT22;20469;55.638;37.670;2023-05-25T09:23:13;19.40;99.90
34201;DHT22;20469;55.638;37.670;2023-05-25T09:25:41;19.50;99.90
34201;DHT22;20469;55.638;37.670;2023-05-25T09:28:09;19.60;99.90
34201;DHT22;20469;55.638;37.670;2023-05-25T09:30:40;19.60;99.90
34201;DHT22;20469;55.638;37.670;2023-05-25T09:33:12;19.80;99.90
34201;DHT22;20469;55.638;37.670;2023-05-25T09:35:40;19.90;99.90
34201;DHT22;20469;55.638;37.670;2023-05-25T09:38:07;20.00;99.90
34201;DHT22;20469;55.638;37.670;2023-05-25T09:40:37;20.10;99.90
34201;DHT22;20469;55.638;37.670;2023-05-25T09:43:04;19.80;99.90
34201;DHT22;20469;55.638;37.670;2023-05-25T09:45:32;19.80;99.90
34201;DHT22;20469;55.638;37.670;2023-05-25T09:48:00;19.80;99.90
34201;DHT22;20469;55.638;37.670;2023-05-25T09:50:28;19.80;99.90
34201;DHT22;20469;55.638;37.670;2023-05-25T09:52:58;19.80;99.90
34201;DHT22;20469;55.638;37.670;2023-05-25T09:55:27;19.90;99.90
34201;DHT22;20469;55.638;37.670;2023-05-25T09:58:10;20.10;99.90
34201;DHT22;20469;55.638;37.670;2023-05-25T10:00:39;19.90;99.90
34201;DHT22;20469;55.638;37.670;2023-05-25T10:03:07;19.90;99.90
34201;DHT22;20469;55.638;37.670;2023-05-25T10:05:35;20.00;99.90
34201;DHT22;20469;55.638;37.670;2023-05-25T10:08:02;20.20;99.90
34201;DHT22;20469;55.638;37.670;2023-05-25T10:10:30;20.20;99.90
34201;DHT22;20469;55.638;37.670;2023-05-25T10:12:58;20.40;99.90
34201;DHT22;20469;55.638;37.670;2023-05-25T10:15:26;20.40;99.90
34201;DHT22;20469;55.638;37.670;2023-05-25T10:17:54;20.80;99.90
34201;DHT22;20469;55.638;37.670;2023-05-25T10:20:23;20.80;99.90
34201;DHT22;20469;55.638;37.670;2023-05-25T10:23:13;20.60;99.90
34201;DHT22;20469;55.638;37.670;2023-05-25T10:25:47;20.50;99.90
34201;DHT22;20469;55.638;37.670;2023-05-25T10:28:27;20.70;99.90
34201;DHT22;20469;55.638;37.670;2023-05-25T10:30:56;21.10;99.90
34201;DHT22;20469;55.638;37.670;2023-05-25T10:33:24;21.30;99.90
34201;DHT22;20469;55.638;37.670;2023-05-25T10:35:53;20.60;99.90
34201;DHT22;20469;55.638;37.670;2023-05-25T10:38:38;20.50;99.90
34201;DHT22;20469;55.638;37.670;2023-05-25T10:41:08;20.20;99.90
34201;DHT22;20469;55.638;37.670;2023-05-25T10:43:38;20.10;99.90
34201;DHT22;20469;55.638;37.670;2023-05-25T10:46:06;19.80;99.90
34201;DHT22;20469;55.638;37.670;2023-05-25T10:48:38;19.90;99.90
34201;DHT22;20469;55.638;37.670;2023-05-25T10:51:06;19.70;99.90
34201;DHT22;20469;55.638;37.670;2023-05-25T10:53:36;19.70;99.90
34201;DHT22;20469;55.638;37.670;2023-05-25T10:56:05;19.60;99.90
34201;DHT22;20469;55.638;37.670;2023-05-25T10:58:33;19.60;99.90
34201;DHT22;20469;55.638;37.670;2023-05-25T11:01:09;19.80;99.90
34201;DHT22;20469;55.638;37.670;2023-05-25T11:06:12;19.90;99.90
34201;DHT22;20469;55.638;37.670;2023-05-25T11:11:16;19.90;99.90
34201;DHT22;20469;55.638;37.670;2023-05-25T11:13:48;19.90;99.90
34201;DHT22;20469;55.638;37.670;2023-05-25T11:16:30;20.20;99.90
34201;DHT22;20469;55.638;37.670;2023-05-25T11:19:02;20.20;99.90
34201;DHT22;20469;55.638;37.670;2023-05-25T11:24:00;20.50;99.90
34201;DHT22;20469;55.638;37.670;2023-05-25T11:26:31;20.70;99.90
34201;DHT22;20469;55.638;37.670;2023-05-25T11:29:05;21.20;99.90
34201;DHT22;20469;55.638;37.670;2023-05-25T11:31:38;21.80;99.90
34201;DHT22;20469;55.638;37.670;2023-05-25T11:34:10;22.20;99.90
34201;DHT22;20469;55.638;37.670;2023-05-25T11:36:38;23.10;99.90
34201;DHT22;20469;55.638;37.670;2023-05-25T11:39:07;22.90;99.90
34201;DHT22;20469;55.638;37.670;2023-05-25T11:41:54;23.20;99.90
34201;DHT22;20469;55.638;37.670;2023-05-25T11:44:29;22.70;99.90
34201;DHT22;20469;55.638;37.670;2023-05-25T11:47:00;21.80;99.90
34201;DHT22;20469;55.638;37.670;2023-05-25T11:49:27;21.60;99.90
34201;DHT22;20469;55.638;37.670;2023-05-25T11:51:58;21.00;99.90
34201;DHT22;20469;55.638;37.670;2023-05-25T11:54:27;20.20;99.90
34201;DHT22;20469;55.638;37.670;2023-05-25T11:56:56;20.20;99.90
34201;DHT22;20469;55.638;37.670;2023-05-25T11:59:26;20.60;99.90
34201;DHT22;20469;55.638;37.670;2023-05-25T12:01:59;21.40;99.90
34201;DHT22;20469;55.638;37.670;2023-05-25T12:04:28;22.20;99.90
34201;DHT22;20469;55.638;37.670;2023-05-25T12:07:03;23.40;99.90
34201;DHT22;20469;55.638;37.670;2023-05-25T12:09:31;23.40;99.90
34201;DHT22;20469;55.638;37.670;2023-05-25T12:11:58;22.20;99.90
34201;DHT22;20469;55.638;37.670;2023-05-25T12:14:29;21.70;99.90
34201;DHT22;20469;55.638;37.670;2023-05-25T12:16:57;21.20;99.90
34201;DHT22;20469;55.638;37.670;2023-05-25T12:19:24;21.30;99.90
34201;DHT22;20469;55.638;37.670;2023-05-25T12:21:51;21.40;99.90
34201;DHT22;20469;55.638;37.670;2023-05-25T12:24:19;21.30;99.90
34201;DHT22;20469;55.638;37.670;2023-05-25T12:26:51;21.10;99.90
34201;DHT22;20469;55.638;37.670;2023-05-25T12:29:24;21.10;99.90
34201;DHT22;20469;55.638;37.670;2023-05-25T12:32:00;20.60;99.90
34201;DHT22;20469;55.638;37.670;2023-05-25T12:34:27;20.40;99.90
34201;DHT22;20469;55.638;37.670;2023-05-25T12:36:55;20.30;99.90
34201;DHT22;20469;55.638;37.670;2023-05-25T12:41:57;20.40;99.90
34201;DHT22;20469;55.638;37.670;2023-05-25T12:46:54;21.00;99.90
34201;DHT22;20469;55.638;37.670;2023-05-25T12:49:33;20.90;99.90
34201;DHT22;20469;55.638;37.670;2023-05-25T12:52:02;20.80;99.90
34201;DHT22;20469;55.638;37.670;2023-05-25T12:54:42;20.90;99.90
34201;DHT22;20469;55.638;37.670;2023-05-25T12:57:16;20.70;99.90
34201;DHT22;20469;55.638;37.670;2023-05-25T12:59:45;20.80;99.90
34201;DHT22;20469;55.638;37.670;2023-05-25T13:02:13;20.70;99.90
34201;DHT22;20469;55.638;37.670;2023-05-25T13:04:41;20.20;99.90
34201;DHT22;20469;55.638;37.670;2023-05-25T13:07:09;20.00;99.90
34201;DHT22;20469;55.638;37.670;2023-05-25T13:09:36;20.10;99.90
34201;DHT22;20469;55.638;37.670;2023-05-25T13:12:04;20.20;99.90
34201;DHT22;20469;55.638;37.670;2023-05-25T13:14:32;20.20;99.90
34201;DHT22;20469;55.638;37.670;2023-05-25T13:16:59;20.00;99.90
34201;DHT22;20469;55.638;37.670;2023-05-25T13:19:26;20.10;99.90
34201;DHT22;20469;55.638;37.670;2023-05-25T13:21:53;20.10;99.90
34201;DHT22;20469;55.638;37.670;2023-05-25T13:24:22;20.40;99.90
34201;DHT22;20469;55.638;37.670;2023-05-25T13:26:50;20.60;99.90
34201;DHT22;20469;55.638;37.670;2023-05-25T13:29:17;20.80;99.90
34201;DHT22;20469;55.638;37.670;2023-05-25T13:31:45;20.90;99.90
34201;DHT22;20469;55.638;37.670;2023-05-25T13:34:12;20.90;99.90
34201;DHT22;20469;55.638;37.670;2023-05-25T13:36:40;20.80;99.90
34201;DHT22;20469;55.638;37.670;2023-05-25T13:39:07;21.10;99.90
34201;DHT22;20469;55.638;37.670;2023-05-25T13:41:39;21.00;99.90
34201;DHT22;20469;55.638;37.670;2023-05-25T13:44:07;20.90;99.90
34201;DHT22;20469;55.638;37.670;2023-05-25T13:46:34;20.90;99.90
34201;DHT22;20469;55.638;37.670;2023-05-25T13:49:03;20.80;99.90
34201;DHT22;20469;55.638;37.670;2023-05-25T13:51:30;20.90;99.90
34201;DHT22;20469;55.638;37.670;2023-05-25T13:54:01;20.70;99.90
34201;DHT22;20469;55.638;37.670;2023-05-25T13:56:29;20.50;99.90
34201;DHT22;20469;55.638;37.670;2023-05-25T13:58:57;20.60;99.90
34201;DHT22;20469;55.638;37.670;2023-05-25T14:01:25;20.40;99.90
34201;DHT22;20469;55.638;37.670;2023-05-25T14:03:54;20.70;99.90
34201;DHT22;20469;55.638;37.670;2023-05-25T14:06:22;21.00;99.90
34201;DHT22;20469;55.638;37.670;2023-05-25T14:11:36;20.90;99.90
34201;DHT22;20469;55.638;37.670;2023-05-25T14:14:03;20.80;99.90
34201;DHT22;20469;55.638;37.670;2023-05-25T14:16:42;20.80;99.90
34201;DHT22;20469;55.638;37.670;2023-05-25T14:19:10;21.00;99.90
34201;DHT22;20469;55.638;37.670;2023-05-25T14:21:37;21.00;99.90
34201;DHT22;20469;55.638;37.670;2023-05-25T14:24:04;20.70;99.90
34201;DHT22;20469;55.638;37.670;2023-05-25T14:26:32;20.60;99.90
34201;DHT22;20469;55.638;37.670;2023-05-25T14:28:59;20.70;99.90
34201;DHT22;20469;55.638;37.670;2023-05-25T14:34:12;20.40;99.90
34201;DHT22;20469;55.638;37.670;2023-05-25T14:36:39;20.50;99.90
34201;DHT22;20469;55.638;37.670;2023-05-25T14:39:25;20.50;99.90
34201;DHT22;20469;55.638;37.670;2023-05-25T14:41:53;20.50;99.90
34201;DHT22;20469;55.638;37.670;2023-05-25T14:44:20;20.50;99.90
34201;DHT22;20469;55.638;37.670;2023-05-25T14:47:06;20.30;99.90
34201;DHT22;20469;55.638;37.670;2023-05-25T14:49:33;20.50;99.90
34201;DHT22;20469;55.638;37.670;2023-05-25T14:52:00;20.30;99.90
34201;DHT22;20469;55.638;37.670;2023-05-25T14:54:28;19.90;99.90
34201;DHT22;20469;55.638;37.670;2023-05-25T14:56:55;20.20;99.90
34201;DHT22;20469;55.638;37.670;2023-05-25T14:59:23;20.00;99.90
34201;DHT22;20469;55.638;37.670;2023-05-25T15:01:50;19.90;99.90
34201;DHT22;20469;55.638;37.670;2023-05-25T15:04:17;19.90;99.90
34201;DHT22;20469;55.638;37.670;2023-05-25T15:06:45;19.80;99.90
34201;DHT22;20469;55.638;37.670;2023-05-25T15:09:12;19.70;99.90
34201;DHT22;20469;55.638;37.670;2023-05-25T15:11:41;19.90;99.90
34201;DHT22;20469;55.638;37.670;2023-05-25T15:14:24;19.80;99.90
34201;DHT22;20469;55.638;37.670;2023-05-25T15:16:52;19.80;99.90
34201;DHT22;20469;55.638;37.670;2023-05-25T15:19:19;19.90;99.90
34201;DHT22;20469;55.638;37.670;2023-05-25T15:21:49;19.80;99.90
34201;DHT22;20469;55.638;37.670;2023-05-25T15:24:16;19.90;99.90
34201;DHT22;20469;55.638;37.670;2023-05-25T15:26:43;19.90;99.90
34201;DHT22;20469;55.638;37.670;2023-05-25T15:29:11;19.80;99.90
34201;DHT22;20469;55.638;37.670;2023-05-25T15:31:38;19.80;99.90
34201;DHT22;20469;55.638;37.670;2023-05-25T15:34:05;19.80;99.90
34201;DHT22;20469;55.638;37.670;2023-05-25T15:36:33;19.70;99.90
34201;DHT22;20469;55.638;37.670;2023-05-25T15:39:00;19.70;99.90
34201;DHT22;20469;55.638;37.670;2023-05-25T15:41:46;19.60;99.90
34201;DHT22;20469;55.638;37.670;2023-05-25T15:44:13;19.40;99.90
34201;DHT22;20469;55.638;37.670;2023-05-25T15:46:40;19.50;99.90
34201;DHT22;20469;55.638;37.670;2023-05-25T15:49:08;19.50;99.90
34201;DHT22;20469;55.638;37.670;2023-05-25T15:51:39;19.40;99.90
34201;DHT22;20469;55.638;37.670;2023-05-25T15:54:08;19.40;99.90
34201;DHT22;20469;55.638;37.670;2023-05-25T15:56:40;19.50;99.90
34201;DHT22;20469;55.638;37.670;2023-05-25T15:59:07;19.70;99.90
34201;DHT22;20469;55.638;37.670;2023-05-25T16:01:34;19.70;99.90
34201;DHT22;20469;55.638;37.670;2023-05-25T16:04:03;19.70;99.90